createdAt,value
2022-11-27T00:01:28.031Z,101085.75
2022-11-27T00:03:56.387Z,101083.06
2022-11-27T00:06:25.890Z,101076.84
2022-11-27T00:08:53.286Z,101071.13
2022-11-27T00:11:22.714Z,101078.09
2022-11-27T00:13:50.622Z,101079.00
2022-11-27T00:16:18.672Z,101081.13
2022-11-27T00:18:46.391Z,101075.97
2022-11-27T00:21:16.328Z,101087.78
2022-11-27T00:23:44.003Z,101083.38
2022-11-27T00:26:14.423Z,101085.47
2022-11-27T00:28:42.061Z,101076.06
2022-11-27T00:31:15.692Z,101085.00
2022-11-27T00:33:43.404Z,101076.31
2022-11-27T00:36:12.077Z,101084.84
2022-11-27T00:38:39.490Z,101081.63
2022-11-27T00:41:12.574Z,101081.63
2022-11-27T00:43:44.193Z,101089.44
2022-11-27T00:46:14.136Z,101094.37
2022-11-27T00:48:41.745Z,101090.53
2022-11-27T00:51:12.190Z,101089.62
2022-11-27T00:53:40.064Z,101090.47
2022-11-27T00:56:07.895Z,101097.47
2022-11-27T00:58:35.469Z,101096.56
2022-11-27T01:01:06.489Z,101091.37
2022-11-27T01:03:34.774Z,101094.84
2022-11-27T01:06:04.246Z,101094.63
2022-11-27T01:08:32.602Z,101095.53
2022-11-27T01:11:00.821Z,101096.16
2022-11-27T01:13:34.030Z,101095.97
2022-11-27T01:16:07.454Z,101090.75
2022-11-27T01:18:35.981Z,101096.69
2022-11-27T01:21:04.355Z,101093.38
2022-11-27T01:23:31.891Z,101093.19
2022-11-27T01:26:06.790Z,101098.25
2022-11-27T01:28:35.143Z,101096.59
2022-11-27T01:31:07.334Z,101106.56
2022-11-27T01:33:35.004Z,101097.28
2022-11-27T01:36:04.839Z,101099.69
2022-11-27T01:38:32.951Z,101107.84
2022-11-27T01:41:08.203Z,101109.28
2022-11-27T01:43:41.875Z,101096.47
2022-11-27T01:46:30.108Z,101099.00
2022-11-27T01:49:05.441Z,101091.97
2022-11-27T01:51:33.160Z,101096.03
2022-11-27T01:54:00.531Z,101094.50
2022-11-27T01:56:28.319Z,101092.75
2022-11-27T01:58:57.635Z,101096.62
2022-11-27T02:01:26.184Z,101103.28
2022-11-27T02:03:55.173Z,101100.97
2022-11-27T02:06:22.738Z,101100.97
2022-11-27T02:08:50.162Z,101100.94
2022-11-27T02:11:29.338Z,101104.34
2022-11-27T02:14:32.377Z,101105.91
2022-11-27T02:17:20.487Z,101105.94
2022-11-27T02:20:12.882Z,101103.44
2022-11-27T02:22:52.045Z,101097.25
2022-11-27T02:25:34.877Z,101097.25
2022-11-27T02:28:14.226Z,101093.75
2022-11-27T02:30:47.288Z,101096.56
2022-11-27T02:33:17.643Z,101100.94
2022-11-27T02:35:52.030Z,101101.56
2022-11-27T02:38:33.125Z,101097.34
2022-11-27T02:41:06.930Z,101108.88
2022-11-27T02:43:37.546Z,101110.44
2022-11-27T02:46:06.829Z,101115.69
2022-11-27T02:48:42.772Z,101113.53
2022-11-27T02:51:12.250Z,101110.44
2022-11-27T02:53:43.666Z,101103.16
2022-11-27T02:56:14.449Z,101108.19
2022-11-27T02:58:42.254Z,101103.88
2022-11-27T03:01:10.863Z,101110.44
2022-11-27T03:03:45.550Z,101112.53
2022-11-27T03:06:17.666Z,101110.31
2022-11-27T03:09:02.175Z,101111.44
2022-11-27T03:11:32.523Z,101109.53
2022-11-27T03:14:03.791Z,101109.53
2022-11-27T03:16:57.002Z,101113.75
2022-11-27T03:19:47.876Z,101105.88
2022-11-27T03:22:16.501Z,101108.28
2022-11-27T03:24:44.318Z,101110.78
2022-11-27T03:27:17.844Z,101109.69
2022-11-27T03:29:48.147Z,101105.47
2022-11-27T03:32:15.906Z,101109.88
2022-11-27T03:34:43.621Z,101108.19
2022-11-27T03:37:11.358Z,101117.22
2022-11-27T03:39:39.009Z,101116.28
2022-11-27T03:42:18.509Z,101122.50
2022-11-27T03:45:08.138Z,101117.78
2022-11-27T03:47:45.164Z,101120.25
2022-11-27T03:50:40.306Z,101121.81
2022-11-27T03:53:19.926Z,101121.81
2022-11-27T03:56:05.430Z,101129.91
2022-11-27T03:58:43.925Z,101133.34
2022-11-27T04:01:13.434Z,101125.69
2022-11-27T04:03:41.032Z,101122.84
2022-11-27T04:06:08.510Z,101121.28
2022-11-27T04:08:36.043Z,101126.56
2022-11-27T04:11:03.671Z,101117.91
2022-11-27T04:13:31.259Z,101121.28
2022-11-27T04:16:02.272Z,101122.00
2022-11-27T04:18:30.557Z,101116.38
2022-11-27T04:20:58.252Z,101127.88
2022-11-27T04:23:25.562Z,101123.62
2022-11-27T04:25:53.124Z,101123.38
2022-11-27T04:28:20.716Z,101127.53
2022-11-27T04:30:52.773Z,101128.37
2022-11-27T04:33:20.592Z,101127.72
2022-11-27T04:35:48.003Z,101130.47
2022-11-27T04:38:15.383Z,101127.19
2022-11-27T04:40:43.110Z,101119.62
2022-11-27T04:43:10.417Z,101124.78
2022-11-27T04:45:37.823Z,101119.62
2022-11-27T04:48:05.971Z,101120.59
2022-11-27T04:50:33.350Z,101126.16
2022-11-27T04:53:00.712Z,101125.63
2022-11-27T04:55:28.275Z,101114.34
2022-11-27T04:57:55.637Z,101111.87
2022-11-27T05:00:22.955Z,101115.22
2022-11-27T05:02:50.640Z,101117.06
2022-11-27T05:05:17.950Z,101118.84
2022-11-27T05:07:45.552Z,101117.94
2022-11-27T05:10:13.264Z,101119.00
2022-11-27T05:12:40.574Z,101115.41
2022-11-27T05:15:09.041Z,101119.09
2022-11-27T05:17:36.601Z,101109.78
2022-11-27T05:20:04.190Z,101114.09
2022-11-27T05:22:31.543Z,101105.31
2022-11-27T05:24:59.148Z,101115.09
2022-11-27T05:27:26.604Z,101122.97
2022-11-27T05:29:53.908Z,101122.97
2022-11-27T05:32:21.482Z,101108.72
2022-11-27T05:34:49.674Z,101111.16
2022-11-27T05:37:19.724Z,101113.12
2022-11-27T05:39:47.798Z,101121.66
2022-11-27T05:42:15.145Z,101112.09
2022-11-27T05:44:42.761Z,101117.25
2022-11-27T05:47:10.532Z,101111.31
2022-11-27T05:49:38.568Z,101109.91
2022-11-27T05:52:05.916Z,101103.88
2022-11-27T05:54:33.496Z,101113.75
2022-11-27T05:57:00.771Z,101116.59
2022-11-27T05:59:28.150Z,101127.44
2022-11-27T06:01:55.803Z,101119.72
2022-11-27T06:04:23.461Z,101117.06
2022-11-27T06:06:51.031Z,101124.19
2022-11-27T06:09:18.336Z,101117.56
2022-11-27T06:11:45.963Z,101117.38
2022-11-27T06:14:13.266Z,101124.25
2022-11-27T06:16:40.595Z,101114.34
2022-11-27T06:19:09.145Z,101127.19
2022-11-27T06:21:36.571Z,101132.66
2022-11-27T06:24:04.108Z,101133.34
2022-11-27T06:26:33.401Z,101135.28
2022-11-27T06:29:01.217Z,101132.78
2022-11-27T06:31:31.264Z,101130.62
2022-11-27T06:33:59.066Z,101126.34
2022-11-27T06:36:32.009Z,101135.47
2022-11-27T06:39:00.152Z,101129.38
2022-11-27T06:41:28.634Z,101127.00
2022-11-27T06:43:58.592Z,101139.56
2022-11-27T06:46:26.922Z,101139.63
2022-11-27T06:48:54.893Z,101141.13
2022-11-27T06:51:25.038Z,101142.34
2022-11-27T06:53:53.409Z,101144.75
2022-11-27T06:56:25.767Z,101151.03
2022-11-27T06:58:55.588Z,101143.00
2022-11-27T07:01:24.496Z,101138.13
2022-11-27T07:03:52.164Z,101139.97
2022-11-27T07:06:22.335Z,101133.88
2022-11-27T07:08:49.641Z,101139.13
2022-11-27T07:11:19.754Z,101138.87
2022-11-27T07:13:48.138Z,101139.78
2022-11-27T07:16:16.682Z,101144.31
2022-11-27T07:18:47.246Z,101141.00
2022-11-27T07:21:15.064Z,101146.00
2022-11-27T07:23:42.452Z,101148.69
2022-11-27T07:26:15.899Z,101143.66
2022-11-27T07:28:44.193Z,101149.63
2022-11-27T07:31:16.689Z,101152.44
2022-11-27T07:33:44.429Z,101146.38
2022-11-27T07:36:14.645Z,101154.22
2022-11-27T07:38:42.693Z,101152.53
2022-11-27T07:41:10.725Z,101150.94
2022-11-27T07:43:38.116Z,101164.06
2022-11-27T07:46:08.187Z,101161.38
2022-11-27T07:48:35.845Z,101160.25
2022-11-27T07:51:06.141Z,101147.50
2022-11-27T07:53:37.570Z,101146.06
2022-11-27T07:56:09.658Z,101150.00
2022-11-27T07:58:37.013Z,101141.25
2022-11-27T08:01:09.729Z,101143.31
2022-11-27T08:03:38.051Z,101151.53
2022-11-27T08:06:13.923Z,101156.78
2022-11-27T08:08:41.503Z,101147.41
2022-11-27T08:11:18.729Z,101154.84
2022-11-27T08:13:46.653Z,101157.75
2022-11-27T08:16:14.123Z,101159.47
2022-11-27T08:18:41.742Z,101151.31
2022-11-27T08:21:09.402Z,101161.12
2022-11-27T08:23:36.755Z,101155.53
2022-11-27T08:26:11.454Z,101157.34
2022-11-27T08:28:39.814Z,101168.59
2022-11-27T08:31:09.041Z,101161.69
2022-11-27T08:33:36.881Z,101176.41
2022-11-27T08:36:04.704Z,101165.91
2022-11-27T08:38:32.044Z,101168.25
2022-11-27T08:41:01.563Z,101165.63
2022-11-27T08:43:29.878Z,101168.41
2022-11-27T08:45:57.376Z,101180.81
2022-11-27T08:48:24.981Z,101166.94
2022-11-27T08:50:52.854Z,101171.12
2022-11-27T08:53:20.883Z,101168.34
2022-11-27T08:55:48.225Z,101168.66
2022-11-27T08:58:15.871Z,101170.81
2022-11-27T09:00:43.475Z,101178.66
2022-11-27T09:03:12.327Z,101188.59
2022-11-27T09:05:44.343Z,101189.69
2022-11-27T09:08:16.747Z,101191.03
2022-11-27T09:10:44.314Z,101192.94
2022-11-27T09:13:11.688Z,101199.53
2022-11-27T09:15:39.054Z,101193.06
2022-11-27T09:18:06.662Z,101205.44
2022-11-27T09:20:34.031Z,101198.47
2022-11-27T09:23:02.477Z,101184.03
2022-11-27T09:25:30.079Z,101192.19
2022-11-27T09:27:57.435Z,101189.31
2022-11-27T09:30:24.772Z,101189.03
2022-11-27T09:32:52.532Z,101194.44
2022-11-27T09:35:20.049Z,101188.53
2022-11-27T09:37:47.727Z,101185.28
2022-11-27T09:40:17.454Z,101185.94
2022-11-27T09:43:09.792Z,101180.59
2022-11-27T09:45:54.962Z,101173.97
2022-11-27T09:48:33.675Z,101180.59
2022-11-27T09:51:05.128Z,101179.63
2022-11-27T09:56:13.510Z,101182.19
2022-11-27T09:58:42.968Z,101175.09
2022-11-27T10:01:16.813Z,101169.00
2022-11-27T10:03:45.774Z,101164.84
2022-11-27T10:06:33.266Z,101167.62
2022-11-27T10:09:09.085Z,101162.81
2022-11-27T10:11:53.823Z,101158.25
2022-11-27T10:14:30.909Z,101155.69
2022-11-27T10:17:02.420Z,101152.91
2022-11-27T10:19:39.535Z,101144.47
2022-11-27T10:22:21.427Z,101146.13
2022-11-27T10:25:15.601Z,101147.25
2022-11-27T10:30:56.608Z,101140.75
2022-11-27T10:33:27.538Z,101141.87
2022-11-27T10:35:55.202Z,101139.53
2022-11-27T10:38:24.300Z,101141.25
2022-11-27T10:41:06.421Z,101131.13
2022-11-27T10:43:35.868Z,101132.00
2022-11-27T10:46:25.187Z,101136.31
2022-11-27T10:48:52.858Z,101126.25
2022-11-27T10:51:30.471Z,101136.25
2022-11-27T10:53:59.416Z,101134.97
2022-11-27T10:56:40.459Z,101126.72
2022-11-27T10:59:19.755Z,101123.34
2022-11-27T11:01:50.392Z,101114.06
2022-11-27T11:04:39.141Z,101109.50
2022-11-27T11:07:27.474Z,101108.44
2022-11-27T11:09:55.411Z,101108.94
2022-11-27T11:12:23.956Z,101103.03
2022-11-27T11:15:01.730Z,101105.19
2022-11-27T11:17:37.849Z,101098.41
2022-11-27T11:20:15.407Z,101088.78
2022-11-27T11:22:47.230Z,101092.28
2022-11-27T11:25:19.957Z,101080.41
2022-11-27T11:27:48.625Z,101087.94
2022-11-27T11:30:25.019Z,101085.81
2022-11-27T11:32:59.858Z,101086.00
2022-11-27T11:35:32.151Z,101076.38
2022-11-27T11:38:01.369Z,101077.56
2022-11-27T11:40:31.806Z,101067.56
2022-11-27T11:43:00.484Z,101072.53
2022-11-27T11:45:33.421Z,101064.91
2022-11-27T11:48:25.318Z,101067.66
2022-11-27T11:51:10.190Z,101061.97
2022-11-27T11:53:39.997Z,101056.75
2022-11-27T11:56:32.407Z,101054.13
2022-11-27T11:59:10.955Z,101052.91
2022-11-27T12:01:59.665Z,101053.00
2022-11-27T12:04:52.448Z,101045.22
2022-11-27T12:07:51.812Z,101045.47
2022-11-27T12:10:29.918Z,101053.91
2022-11-27T12:13:06.531Z,101049.78
2022-11-27T12:15:39.914Z,101053.25
2022-11-27T12:18:43.157Z,101055.03
2022-11-27T12:21:41.776Z,101045.78
2022-11-27T12:24:34.851Z,101045.88
2022-11-27T12:27:19.061Z,101033.75
2022-11-27T12:29:55.452Z,101041.66
2022-11-27T12:32:31.643Z,101040.50
2022-11-27T12:35:17.675Z,101041.94
2022-11-27T12:38:00.698Z,101036.69
2022-11-27T12:40:33.305Z,101041.94
2022-11-27T12:43:12.729Z,101037.50
2022-11-27T12:46:10.771Z,101032.47
2022-11-27T12:48:50.155Z,101039.28
2022-11-27T12:51:34.279Z,101036.69
2022-11-27T12:54:06.671Z,101034.78
2022-11-27T12:56:49.201Z,101032.22
2022-11-27T12:59:25.349Z,101032.47
2022-11-27T13:02:09.394Z,101032.28
2022-11-27T13:04:39.867Z,101035.84
2022-11-27T13:07:13.989Z,101027.22
2022-11-27T13:09:53.766Z,101029.94
2022-11-27T13:12:24.935Z,101019.78
2022-11-27T13:15:35.784Z,101020.78
2022-11-27T13:18:41.804Z,101022.59
2022-11-27T13:21:13.343Z,101013.75
2022-11-27T13:23:40.917Z,101017.31
2022-11-27T13:26:23.343Z,101013.09
2022-11-27T13:28:57.620Z,101012.28
2022-11-27T13:31:31.235Z,101017.31
2022-11-27T13:34:00.506Z,101009.84
2022-11-27T13:36:36.239Z,101011.31
2022-11-27T13:39:03.788Z,101019.31
2022-11-27T13:41:40.162Z,101019.13
2022-11-27T13:44:24.951Z,101016.34
2022-11-27T13:46:54.809Z,101011.25
2022-11-27T13:49:29.242Z,101009.53
2022-11-27T13:52:16.860Z,101008.72
2022-11-27T13:54:56.386Z,101012.50
2022-11-27T13:57:25.222Z,101011.38
2022-11-27T14:00:11.329Z,101011.31
2022-11-27T14:02:51.219Z,101005.94
2022-11-27T14:05:21.200Z,101012.28
2022-11-27T14:07:51.211Z,101010.47
2022-11-27T14:10:21.879Z,101015.69
2022-11-27T14:13:08.658Z,101006.03
2022-11-27T14:15:37.272Z,101012.41
2022-11-27T14:18:14.703Z,101015.91
2022-11-27T14:20:55.491Z,101017.69
2022-11-27T14:23:30.793Z,101016.63
2022-11-27T14:26:24.907Z,101016.66
2022-11-27T14:28:54.597Z,101011.25
2022-11-27T14:31:33.570Z,101017.31
2022-11-27T14:34:23.128Z,101014.72
2022-11-27T14:36:52.499Z,101012.75
2022-11-27T14:39:24.644Z,101015.53
2022-11-27T14:41:58.161Z,101019.59
2022-11-27T14:44:25.435Z,101012.19
2022-11-27T14:46:54.562Z,101021.16
2022-11-27T14:49:24.829Z,101018.22
2022-11-27T14:51:52.665Z,101022.53
2022-11-27T14:54:31.225Z,101026.19
2022-11-27T14:56:58.758Z,101028.47
2022-11-27T14:59:26.444Z,101029.34
2022-11-27T15:02:07.264Z,101025.69
2022-11-27T15:04:39.934Z,101038.00
2022-11-27T15:07:16.120Z,101037.97
2022-11-27T15:09:52.618Z,101046.56
2022-11-27T15:12:33.985Z,101043.91
2022-11-27T15:15:09.149Z,101042.12
2022-11-27T15:17:38.343Z,101044.22
2022-11-27T15:20:18.674Z,101048.31
2022-11-27T15:22:54.456Z,101040.25
2022-11-27T15:26:12.562Z,101042.84
2022-11-27T15:28:47.163Z,101042.94
2022-11-27T15:31:32.614Z,101041.13
2022-11-27T15:34:03.764Z,101036.69
2022-11-27T15:36:40.153Z,101039.34
2022-11-27T15:39:27.270Z,101033.03
2022-11-27T15:42:00.033Z,101036.75
2022-11-27T15:44:30.339Z,101039.19
2022-11-27T15:46:59.942Z,101041.78
2022-11-27T15:49:27.602Z,101036.56
2022-11-27T15:51:56.422Z,101037.41
2022-11-27T15:54:24.607Z,101041.69
2022-11-27T15:56:52.104Z,101038.09
2022-11-27T15:59:20.933Z,101035.53
2022-11-27T16:01:49.686Z,101041.56
2022-11-27T16:04:17.490Z,101031.13
2022-11-27T16:06:45.628Z,101040.53
2022-11-27T16:09:13.017Z,101036.75
2022-11-27T16:11:40.694Z,101038.97
2022-11-27T16:14:08.009Z,101034.09
2022-11-27T16:16:35.613Z,101036.69
2022-11-27T16:19:05.419Z,101029.63
2022-11-27T16:21:34.181Z,101027.75
2022-11-27T16:24:04.085Z,101025.22
2022-11-27T16:26:32.904Z,101023.09
2022-11-27T16:29:00.382Z,101018.59
2022-11-27T16:31:28.075Z,101015.22
2022-11-27T16:33:56.310Z,101011.00
2022-11-27T16:36:24.207Z,101012.84
2022-11-27T16:38:52.592Z,101007.50
2022-11-27T16:41:20.701Z,101010.97
2022-11-27T16:43:50.742Z,101008.38
2022-11-27T16:46:27.574Z,101023.91
2022-11-27T16:48:57.595Z,101010.75
2022-11-27T16:51:28.482Z,100997.81
2022-11-27T16:53:57.738Z,101005.47
2022-11-27T16:56:27.233Z,100993.28
2022-11-27T16:59:00.958Z,100998.50
2022-11-27T17:01:34.333Z,101004.56
2022-11-27T17:04:04.870Z,100998.41
2022-11-27T17:06:33.390Z,100999.22
2022-11-27T17:09:02.247Z,101008.69
2022-11-27T17:11:35.473Z,101000.66
2022-11-27T17:14:08.361Z,101007.66
2022-11-27T17:16:38.760Z,100998.97
2022-11-27T17:19:07.141Z,101000.91
2022-11-27T17:21:35.360Z,100991.25
2022-11-27T17:24:10.124Z,100990.38
2022-11-27T17:26:43.469Z,100989.44
2022-11-27T17:29:12.828Z,100987.69
2022-11-27T17:31:40.386Z,100986.13
2022-11-27T17:34:09.801Z,100982.47
2022-11-27T17:36:37.658Z,100980.66
2022-11-27T17:39:06.863Z,100978.97
2022-11-27T17:41:34.762Z,100981.66
2022-11-27T17:44:05.396Z,100971.19
2022-11-27T17:46:33.515Z,100971.22
2022-11-27T17:49:03.959Z,100959.91
2022-11-27T17:51:33.062Z,100959.06
2022-11-27T17:54:01.879Z,100959.16
2022-11-27T17:56:30.038Z,100953.88
2022-11-27T17:58:59.721Z,100952.16
2022-11-27T18:01:29.281Z,100953.13
2022-11-27T18:04:00.418Z,100952.31
2022-11-27T18:06:30.071Z,100939.31
2022-11-27T18:08:58.542Z,100942.63
2022-11-27T18:11:28.559Z,100942.63
2022-11-27T18:13:57.528Z,100938.25
2022-11-27T18:16:29.165Z,100942.72
2022-11-27T18:18:57.997Z,100945.25
2022-11-27T18:21:28.878Z,100948.59
2022-11-27T18:27:07.062Z,100945.84
2022-11-27T18:29:31.782Z,100947.69
2022-11-27T18:31:59.532Z,100947.78
2022-11-27T18:34:27.017Z,100935.56
2022-11-27T18:36:57.290Z,100945.13
2022-11-27T18:39:25.465Z,100947.72
2022-11-27T18:41:52.850Z,100935.56
2022-11-27T18:44:20.567Z,100929.56
2022-11-27T18:46:48.255Z,100931.28
2022-11-27T18:49:15.645Z,100931.06
2022-11-27T18:51:43.042Z,100930.38
2022-11-27T18:54:10.863Z,100928.59
2022-11-27T18:56:38.344Z,100933.91
2022-11-27T18:59:06.558Z,100935.00
2022-11-27T19:01:41.461Z,100925.19
2022-11-27T19:04:10.624Z,100940.16
2022-11-27T19:06:39.222Z,100938.16
2022-11-27T19:09:07.043Z,100939.75
2022-11-27T19:11:35.171Z,100938.00
2022-11-27T19:14:04.502Z,100931.44
2022-11-27T19:16:39.116Z,100930.41
2022-11-27T19:19:07.423Z,100933.13
2022-11-27T19:21:35.500Z,100932.84
2022-11-27T19:24:04.965Z,100937.91
2022-11-27T19:26:35.346Z,100936.13
2022-11-27T19:29:08.974Z,100932.72
2022-11-27T19:31:39.368Z,100931.06
2022-11-27T19:34:07.615Z,100935.28
2022-11-27T19:36:35.701Z,100939.69
2022-11-27T19:39:06.692Z,100945.97
2022-11-27T19:41:34.316Z,100940.56
2022-11-27T19:44:04.651Z,100939.69
2022-11-27T19:46:35.367Z,100936.41
2022-11-27T19:49:05.870Z,100933.78
2022-11-27T19:51:35.594Z,100939.53
2022-11-27T19:54:07.055Z,100937.16
2022-11-27T19:56:40.084Z,100936.00
2022-11-27T19:59:08.670Z,100934.34
2022-11-27T20:01:37.770Z,100928.94
2022-11-27T20:04:06.403Z,100923.81
2022-11-27T20:06:37.304Z,100924.63
2022-11-27T20:09:05.497Z,100921.19
2022-11-27T20:11:35.418Z,100918.56
2022-11-27T20:14:05.349Z,100920.44
2022-11-27T20:16:34.000Z,100923.91
2022-11-27T20:19:02.274Z,100918.53
2022-11-27T20:21:29.813Z,100916.84
2022-11-27T20:23:57.761Z,100917.94
2022-11-27T20:26:27.488Z,100909.13
2022-11-27T20:28:55.202Z,100916.94
2022-11-27T20:31:33.970Z,100923.03
2022-11-27T20:34:03.464Z,100911.56
2022-11-27T20:36:33.026Z,100909.81
2022-11-27T20:39:01.075Z,100905.44
2022-11-27T20:41:29.000Z,100911.47
2022-11-27T20:43:59.260Z,100908.88
2022-11-27T20:46:27.299Z,100907.75
2022-11-27T20:48:55.231Z,100908.91
2022-11-27T20:51:28.713Z,100910.59
2022-11-27T20:53:57.616Z,100897.34
2022-11-27T20:56:25.651Z,100911.41
2022-11-27T20:58:54.166Z,100905.56
2022-11-27T21:01:33.443Z,100904.75
2022-11-27T21:04:04.318Z,100903.69
2022-11-27T21:06:32.503Z,100899.06
2022-11-27T21:09:01.875Z,100899.28
2022-11-27T21:11:31.129Z,100902.66
2022-11-27T21:14:01.204Z,100900.84
2022-11-27T21:16:30.994Z,100897.50
2022-11-27T21:19:00.265Z,100901.66
2022-11-27T21:21:28.610Z,100899.13
2022-11-27T21:23:56.017Z,100894.69
2022-11-27T21:26:24.118Z,100899.03
2022-11-27T21:28:51.726Z,100897.44
2022-11-27T21:31:24.415Z,100897.44
2022-11-27T21:33:57.676Z,100894.94
2022-11-27T21:36:30.526Z,100891.41
2022-11-27T21:38:58.900Z,100892.31
2022-11-27T21:41:26.980Z,100899.31
2022-11-27T21:43:56.782Z,100886.22
2022-11-27T21:46:25.322Z,100886.25
2022-11-27T21:48:56.174Z,100886.25
2022-11-27T21:51:25.962Z,100882.16
2022-11-27T21:53:55.369Z,100885.53
2022-11-27T21:56:24.459Z,100881.84
2022-11-27T21:58:52.423Z,100885.56
2022-11-27T22:01:22.542Z,100885.66
2022-11-27T22:03:53.983Z,100888.91
2022-11-27T22:06:22.682Z,100888.03
2022-11-27T22:08:51.044Z,100891.34
2022-11-27T22:11:20.908Z,100888.59
2022-11-27T22:13:50.039Z,100888.56
2022-11-27T22:16:19.928Z,100886.22
2022-11-27T22:18:48.034Z,100879.25
2022-11-27T22:21:16.570Z,100875.69
2022-11-27T22:23:44.661Z,100875.66
2022-11-27T22:26:13.905Z,100883.41
2022-11-27T22:28:42.104Z,100886.81
2022-11-27T22:31:28.199Z,100878.16
2022-11-27T22:33:56.373Z,100879.25
2022-11-27T22:36:31.255Z,100878.44
2022-11-27T22:39:00.726Z,100869.75
2022-11-27T22:41:30.232Z,100868.69
2022-11-27T22:44:00.309Z,100869.59
2022-11-27T22:46:33.850Z,100868.22
2022-11-27T22:49:04.544Z,100865.53
2022-11-27T22:51:35.325Z,100866.00
2022-11-27T22:54:03.919Z,100872.81
2022-11-27T22:56:33.698Z,100867.00
2022-11-27T22:59:30.387Z,100870.47
2022-11-27T23:01:49.172Z,100868.59
2022-11-27T23:04:17.179Z,100864.25
2022-11-27T23:06:48.601Z,100856.69
2022-11-27T23:09:18.112Z,100850.41
2022-11-27T23:11:45.587Z,100846.78
2022-11-27T23:14:13.212Z,100853.75
2022-11-27T23:16:40.907Z,100852.28
2022-11-27T23:19:08.922Z,100846.03
2022-11-27T23:21:37.699Z,100841.72
2022-11-27T23:24:06.632Z,100832.94
2022-11-27T23:26:34.428Z,100830.28
2022-11-27T23:29:02.144Z,100819.25
2022-11-27T23:31:32.615Z,100816.16
2022-11-27T23:34:01.948Z,100804.00
2022-11-27T23:36:30.974Z,100808.94
2022-11-27T23:39:03.025Z,100800.91
2022-11-27T23:41:31.385Z,100791.34
2022-11-27T23:43:58.764Z,100788.72
2022-11-27T23:46:27.802Z,100793.09
2022-11-27T23:48:56.773Z,100784.53
2022-11-27T23:51:26.267Z,100786.28
2022-11-27T23:53:53.850Z,100792.53
2022-11-27T23:56:24.089Z,100794.91
2022-11-27T23:58:51.459Z,100799.37
